createdAt,value
2022-08-29T00:01:08.805Z,81.70
2022-08-29T00:03:55.829Z,81.50
2022-08-29T00:06:41.300Z,81.40
2022-08-29T00:09:33.078Z,81.70
2022-08-29T00:12:21.720Z,81.60
2022-08-29T00:15:09.284Z,81.50
2022-08-29T00:17:54.489Z,81.50
2022-08-29T00:20:40.156Z,81.40
2022-08-29T00:23:25.579Z,81.60
2022-08-29T00:26:12.962Z,81.50
2022-08-29T00:28:58.528Z,81.60
2022-08-29T00:31:46.626Z,81.70
2022-08-29T00:34:31.901Z,81.70
2022-08-29T00:37:17.215Z,81.80
2022-08-29T00:40:04.910Z,82.00
2022-08-29T00:42:50.551Z,82.20
2022-08-29T00:45:40.797Z,82.30
2022-08-29T00:48:26.511Z,82.40
2022-08-29T00:51:17.206Z,82.40
2022-08-29T00:54:06.595Z,82.60
2022-08-29T00:56:53.684Z,82.80
2022-08-29T00:59:43.576Z,83.00
2022-08-29T01:02:29.424Z,83.00
2022-08-29T01:05:20.025Z,83.30
2022-08-29T01:08:07.268Z,83.50
2022-08-29T01:11:10.909Z,83.60
2022-08-29T01:13:59.763Z,83.80
2022-08-29T01:16:47.071Z,83.90
2022-08-29T01:19:50.908Z,84.20
2022-08-29T01:23:12.391Z,84.40
2022-08-29T01:26:00.040Z,84.50
2022-08-29T01:28:53.407Z,84.50
2022-08-29T01:31:56.281Z,84.70
2022-08-29T01:34:43.642Z,84.90
2022-08-29T01:37:31.644Z,84.80
2022-08-29T01:40:17.455Z,85.00
2022-08-29T01:43:03.110Z,85.10
2022-08-29T01:45:49.003Z,85.10
2022-08-29T01:48:39.267Z,85.10
2022-08-29T01:51:25.639Z,85.20
2022-08-29T01:54:11.996Z,85.30
2022-08-29T01:56:57.771Z,85.40
2022-08-29T01:59:44.000Z,85.60
2022-08-29T02:02:30.227Z,85.80
2022-08-29T02:05:15.749Z,86.00
2022-08-29T02:08:01.196Z,86.10
2022-08-29T02:10:48.139Z,86.10
2022-08-29T02:13:33.583Z,86.20
2022-08-29T02:16:19.636Z,86.40
2022-08-29T02:19:04.882Z,86.50
2022-08-29T02:21:50.364Z,86.60
2022-08-29T02:24:37.352Z,86.80
2022-08-29T02:27:23.118Z,86.90
2022-08-29T02:30:08.465Z,86.80
2022-08-29T02:32:54.844Z,87.20
2022-08-29T02:35:42.917Z,87.20
2022-08-29T02:38:28.863Z,87.30
2022-08-29T02:41:15.229Z,87.30
2022-08-29T02:44:00.601Z,87.30
2022-08-29T02:46:48.479Z,87.50
2022-08-29T02:49:34.531Z,87.60
2022-08-29T02:52:21.031Z,87.70
2022-08-29T02:55:08.376Z,87.90
2022-08-29T02:57:54.172Z,88.00
2022-08-29T03:00:40.445Z,88.20
2022-08-29T03:03:29.393Z,88.40
2022-08-29T03:06:14.860Z,88.40
2022-08-29T03:09:01.284Z,88.50
2022-08-29T03:11:46.791Z,88.50
2022-08-29T03:14:32.377Z,88.60
2022-08-29T03:17:17.777Z,88.70
2022-08-29T03:20:05.410Z,88.70
2022-08-29T03:22:51.431Z,88.70
2022-08-29T03:25:40.604Z,88.80
2022-08-29T03:28:27.108Z,89.00
2022-08-29T03:31:12.667Z,88.90
2022-08-29T03:33:57.787Z,89.40
2022-08-29T03:36:43.286Z,89.00
2022-08-29T03:39:29.604Z,89.00
2022-08-29T03:42:15.090Z,89.00
2022-08-29T03:45:04.334Z,89.10
2022-08-29T03:47:52.201Z,89.20
2022-08-29T03:50:37.588Z,89.40
2022-08-29T03:53:22.981Z,89.50
2022-08-29T03:56:10.777Z,89.60
2022-08-29T03:59:06.985Z,89.90
2022-08-29T04:01:52.441Z,90.00
2022-08-29T04:04:56.202Z,90.00
2022-08-29T04:07:57.941Z,90.00
2022-08-29T04:10:43.185Z,90.10
2022-08-29T04:13:28.718Z,90.20
2022-08-29T04:16:17.288Z,90.20
2022-08-29T04:19:02.888Z,90.20
2022-08-29T04:21:49.208Z,90.30
2022-08-29T04:24:35.605Z,90.40
2022-08-29T04:27:23.045Z,90.50
2022-08-29T04:30:13.651Z,90.50
2022-08-29T04:32:59.888Z,90.60
2022-08-29T04:35:45.557Z,90.60
2022-08-29T04:38:30.920Z,90.70
2022-08-29T04:41:16.935Z,90.70
2022-08-29T04:44:03.829Z,90.80
2022-08-29T04:46:49.388Z,90.90
2022-08-29T04:49:35.838Z,91.00
2022-08-29T04:52:21.675Z,90.90
2022-08-29T04:55:09.411Z,90.90
2022-08-29T04:57:56.499Z,91.00
2022-08-29T05:00:42.751Z,91.20
2022-08-29T05:03:29.682Z,91.30
2022-08-29T05:06:18.349Z,91.30
2022-08-29T05:09:06.178Z,91.40
2022-08-29T05:11:51.790Z,91.40
2022-08-29T05:14:37.378Z,91.40
2022-08-29T05:17:23.606Z,91.50
2022-08-29T05:20:09.721Z,91.50
2022-08-29T05:22:58.693Z,91.50
2022-08-29T05:25:45.270Z,91.60
2022-08-29T05:28:32.640Z,91.60
2022-08-29T05:31:18.975Z,91.60
2022-08-29T05:34:34.177Z,91.60
2022-08-29T05:37:21.089Z,91.60
2022-08-29T05:40:08.238Z,91.50
2022-08-29T05:42:56.591Z,91.40
2022-08-29T05:45:42.799Z,91.50
2022-08-29T05:48:28.136Z,91.40
2022-08-29T05:51:19.376Z,91.40
2022-08-29T05:54:05.358Z,91.40
2022-08-29T05:56:51.449Z,91.40
2022-08-29T05:59:39.500Z,91.30
2022-08-29T06:02:25.278Z,91.30
2022-08-29T06:05:11.515Z,91.20
2022-08-29T06:07:57.168Z,91.20
2022-08-29T06:10:44.974Z,91.10
2022-08-29T06:13:33.172Z,91.00
2022-08-29T06:16:21.154Z,90.90
2022-08-29T06:19:09.662Z,91.00
2022-08-29T06:21:56.259Z,91.00
2022-08-29T06:24:44.492Z,90.90
2022-08-29T06:27:30.461Z,90.50
2022-08-29T06:30:16.096Z,90.30
2022-08-29T06:33:02.192Z,90.10
2022-08-29T06:35:50.583Z,89.90
2022-08-29T06:38:36.255Z,89.80
2022-08-29T06:41:21.816Z,89.50
2022-08-29T06:44:08.412Z,89.10
2022-08-29T06:46:54.131Z,89.00
2022-08-29T06:49:39.610Z,88.60
2022-08-29T06:52:26.892Z,88.10
2022-08-29T06:55:15.647Z,87.20
2022-08-29T06:58:04.199Z,86.10
2022-08-29T07:00:50.162Z,85.50
2022-08-29T07:03:35.708Z,85.30
2022-08-29T07:06:21.275Z,84.60
2022-08-29T07:09:08.014Z,83.20
2022-08-29T07:12:18.226Z,82.40
2022-08-29T07:15:04.441Z,81.80
2022-08-29T07:17:50.356Z,81.20
2022-08-29T07:20:37.788Z,80.30
2022-08-29T07:23:23.217Z,79.70
2022-08-29T07:26:13.171Z,79.20
2022-08-29T07:29:04.116Z,78.80
2022-08-29T07:31:49.876Z,78.30
2022-08-29T07:34:36.588Z,77.70
2022-08-29T07:37:22.114Z,77.00
2022-08-29T07:40:12.658Z,76.50
2022-08-29T07:42:58.477Z,75.70
2022-08-29T07:45:44.171Z,74.80
2022-08-29T07:48:30.534Z,74.00
2022-08-29T07:51:20.126Z,72.80
2022-08-29T07:54:06.615Z,71.40
2022-08-29T07:56:53.533Z,70.40
2022-08-29T07:59:38.990Z,69.10
2022-08-29T08:02:25.659Z,68.30
2022-08-29T08:05:10.773Z,67.40
2022-08-29T08:07:56.358Z,66.70
2022-08-29T08:10:42.674Z,65.30
2022-08-29T08:13:28.661Z,64.60
2022-08-29T08:16:17.120Z,64.10
2022-08-29T08:19:06.186Z,63.40
2022-08-29T08:21:52.035Z,62.90
2022-08-29T08:24:37.247Z,63.20
2022-08-29T08:27:22.800Z,61.80
2022-08-29T08:30:09.028Z,61.10
2022-08-29T08:32:55.117Z,60.50
2022-08-29T08:35:42.289Z,60.10
2022-08-29T08:38:27.889Z,59.80
2022-08-29T08:41:27.076Z,59.20
2022-08-29T08:44:22.284Z,58.40
2022-08-29T08:47:11.592Z,57.80
2022-08-29T08:50:23.337Z,57.40
2022-08-29T08:53:20.026Z,56.90
2022-08-29T08:56:25.838Z,56.60
2022-08-29T08:59:29.941Z,56.00
2022-08-29T09:02:18.357Z,56.20
2022-08-29T09:05:37.267Z,56.10
2022-08-29T09:08:57.551Z,55.50
2022-08-29T09:11:59.249Z,55.40
2022-08-29T09:15:07.435Z,54.70
2022-08-29T09:18:07.224Z,54.50
2022-08-29T09:20:54.326Z,54.20
2022-08-29T09:23:48.045Z,53.50
2022-08-29T09:26:34.934Z,52.90
2022-08-29T09:29:26.979Z,53.00
2022-08-29T09:32:17.718Z,52.80
2022-08-29T09:35:24.454Z,52.90
2022-08-29T09:38:18.575Z,52.30
2022-08-29T09:41:15.228Z,52.40
2022-08-29T09:44:00.540Z,52.30
2022-08-29T09:47:03.955Z,52.10
2022-08-29T09:50:07.933Z,51.70
2022-08-29T09:53:03.281Z,50.40
2022-08-29T09:55:54.187Z,50.00
2022-08-29T09:58:42.876Z,49.50
2022-08-29T10:01:29.785Z,49.20
2022-08-29T10:04:36.876Z,49.10
2022-08-29T10:07:33.746Z,48.90
2022-08-29T10:10:25.948Z,48.20
2022-08-29T10:13:19.606Z,48.40
2022-08-29T10:16:28.655Z,48.30
2022-08-29T10:19:27.191Z,47.90
2022-08-29T10:22:44.140Z,47.60
2022-08-29T10:25:37.372Z,46.60
2022-08-29T10:28:32.892Z,46.40
2022-08-29T10:31:34.245Z,46.10
2022-08-29T10:34:53.964Z,45.00
2022-08-29T10:38:07.768Z,44.50
2022-08-29T10:41:09.659Z,43.30
2022-08-29T10:44:36.583Z,43.20
2022-08-29T10:47:56.792Z,43.00
2022-08-29T10:51:17.430Z,43.30
2022-08-29T10:54:29.712Z,43.50
2022-08-29T10:57:34.223Z,44.10
2022-08-29T11:00:24.389Z,44.50
2022-08-29T11:03:36.437Z,44.00
2022-08-29T11:09:28.578Z,42.50
2022-08-29T11:12:22.280Z,42.30
2022-08-29T11:15:29.179Z,42.20
2022-08-29T11:18:29.019Z,41.70
2022-08-29T11:21:36.497Z,41.40
2022-08-29T11:24:23.679Z,40.60
2022-08-29T11:27:29.046Z,40.20
2022-08-29T11:30:19.346Z,39.60
2022-08-29T11:33:13.166Z,38.50
2022-08-29T11:36:19.222Z,37.90
2022-08-29T11:39:11.160Z,37.30
2022-08-29T11:42:03.139Z,36.90
2022-08-29T11:44:55.182Z,35.60
2022-08-29T11:47:57.380Z,34.40
2022-08-29T11:50:44.858Z,34.00
2022-08-29T11:53:37.202Z,32.70
2022-08-29T11:56:27.766Z,31.20
2022-08-29T11:59:51.616Z,30.80
2022-08-29T12:02:38.172Z,30.00
2022-08-29T12:05:29.980Z,29.70
2022-08-29T12:08:37.329Z,29.80
2022-08-29T12:11:44.964Z,29.70
2022-08-29T12:14:38.046Z,29.00
2022-08-29T12:17:24.668Z,28.10
2022-08-29T12:20:34.096Z,27.60
2022-08-29T12:23:35.809Z,26.60
2022-08-29T12:26:44.115Z,25.20
2022-08-29T12:29:44.455Z,24.30
2022-08-29T12:32:48.403Z,23.80
2022-08-29T12:36:02.364Z,23.70
2022-08-29T12:39:21.743Z,24.60
2022-08-29T12:42:19.800Z,25.10
2022-08-29T12:45:27.813Z,25.80
2022-08-29T12:48:35.932Z,26.60
2022-08-29T12:51:33.087Z,27.60
2022-08-29T12:54:31.410Z,29.10
2022-08-29T12:57:21.445Z,29.30
2022-08-29T13:00:13.688Z,30.00
2022-08-29T13:03:15.018Z,30.70
2022-08-29T13:06:08.836Z,30.40
2022-08-29T13:08:55.222Z,28.50
2022-08-29T13:11:41.588Z,26.80
2022-08-29T13:14:27.745Z,25.20
2022-08-29T13:17:20.270Z,24.20
2022-08-29T13:20:43.376Z,22.80
2022-08-29T13:23:31.836Z,21.80
2022-08-29T13:26:20.091Z,21.10
2022-08-29T13:29:52.876Z,21.30
2022-08-29T13:32:50.048Z,21.00
2022-08-29T13:36:00.115Z,21.60
2022-08-29T13:38:45.821Z,21.60
2022-08-29T13:41:31.240Z,21.20
2022-08-29T13:44:25.808Z,20.60
2022-08-29T13:47:30.629Z,20.80
2022-08-29T13:50:16.384Z,19.80
2022-08-29T13:53:02.201Z,19.80
2022-08-29T13:55:47.704Z,20.70
2022-08-29T13:58:34.535Z,22.20
2022-08-29T14:01:30.364Z,23.60
2022-08-29T14:07:28.172Z,26.20
2022-08-29T14:10:16.010Z,27.20
2022-08-29T14:13:01.408Z,28.20
2022-08-29T14:15:46.978Z,28.10
2022-08-29T14:18:33.227Z,25.90
2022-08-29T14:21:20.158Z,24.00
2022-08-29T14:24:05.814Z,23.00
2022-08-29T14:27:01.634Z,22.20
2022-08-29T14:29:48.520Z,21.50
2022-08-29T14:32:34.626Z,21.00
2022-08-29T14:35:27.616Z,20.30
2022-08-29T14:38:18.050Z,19.80
2022-08-29T14:41:03.700Z,19.60
2022-08-29T14:43:49.161Z,19.40
2022-08-29T14:46:35.173Z,19.30
2022-08-29T14:49:20.777Z,19.10
2022-08-29T14:52:07.173Z,19.00
2022-08-29T14:54:52.714Z,18.70
2022-08-29T14:57:38.222Z,18.50
2022-08-29T15:00:27.702Z,18.60
2022-08-29T15:03:14.189Z,18.30
2022-08-29T15:05:59.855Z,18.20
2022-08-29T15:08:45.307Z,18.00
2022-08-29T15:11:31.361Z,17.70
2022-08-29T15:14:16.938Z,17.50
2022-08-29T15:17:04.103Z,17.20
2022-08-29T15:22:57.012Z,17.50
2022-08-29T15:25:45.104Z,18.50
2022-08-29T15:28:37.762Z,20.20
2022-08-29T15:31:23.400Z,21.80
2022-08-29T15:34:11.503Z,23.10
2022-08-29T15:37:01.465Z,24.40
2022-08-29T15:39:46.809Z,25.40
2022-08-29T15:42:34.214Z,24.60
2022-08-29T15:45:24.006Z,24.10
2022-08-29T15:48:11.536Z,23.70
2022-08-29T15:50:57.554Z,23.00
2022-08-29T15:53:43.190Z,22.60
2022-08-29T15:56:35.074Z,22.10
2022-08-29T15:59:41.170Z,21.70
2022-08-29T16:02:29.156Z,21.20
2022-08-29T16:05:14.560Z,20.90
2022-08-29T16:08:00.840Z,20.60
2022-08-29T16:10:48.817Z,20.30
2022-08-29T16:13:34.300Z,20.10
2022-08-29T16:16:22.551Z,20.10
2022-08-29T16:19:08.033Z,20.10
2022-08-29T16:21:59.108Z,20.50
2022-08-29T16:24:47.719Z,20.70
2022-08-29T16:27:36.642Z,20.90
2022-08-29T16:30:24.335Z,21.20
2022-08-29T16:33:09.685Z,21.30
2022-08-29T16:35:55.332Z,21.60
2022-08-29T16:38:41.401Z,21.60
2022-08-29T16:41:28.241Z,21.60
2022-08-29T16:44:13.873Z,21.60
2022-08-29T16:46:59.570Z,21.60
2022-08-29T16:49:46.383Z,21.90
2022-08-29T16:52:31.931Z,22.00
2022-08-29T16:55:17.124Z,22.10
2022-08-29T16:58:22.646Z,22.20
2022-08-29T17:01:08.845Z,22.50
2022-08-29T17:03:54.660Z,22.50
2022-08-29T17:06:43.263Z,22.50
2022-08-29T17:09:31.678Z,22.70
2022-08-29T17:12:17.055Z,23.20
2022-08-29T17:15:02.568Z,23.90
2022-08-29T17:17:47.908Z,24.20
2022-08-29T17:20:37.452Z,24.50
2022-08-29T17:23:23.331Z,24.70
2022-08-29T17:26:13.333Z,25.10
2022-08-29T17:28:58.862Z,25.50
2022-08-29T17:31:44.590Z,25.90
2022-08-29T17:34:29.873Z,26.30
2022-08-29T17:37:17.224Z,27.00
2022-08-29T17:40:12.490Z,27.70
2022-08-29T17:43:00.441Z,28.30
2022-08-29T17:45:47.560Z,28.90
2022-08-29T17:48:33.996Z,29.50
2022-08-29T17:51:19.806Z,30.10
2022-08-29T17:54:14.878Z,31.20
2022-08-29T17:57:04.767Z,32.10
2022-08-29T17:59:53.233Z,33.20
2022-08-29T18:02:38.597Z,34.10
2022-08-29T18:05:24.383Z,35.00
2022-08-29T18:08:09.879Z,36.60
2022-08-29T18:10:57.794Z,38.10
2022-08-29T18:13:43.834Z,40.20
2022-08-29T18:16:29.167Z,42.70
2022-08-29T18:19:18.100Z,45.00
2022-08-29T18:22:04.006Z,46.90
2022-08-29T18:24:49.837Z,49.00
2022-08-29T18:27:35.420Z,50.40
2022-08-29T18:30:21.219Z,51.80
2022-08-29T18:33:11.033Z,53.00
2022-08-29T18:35:56.723Z,54.30
2022-08-29T18:38:41.909Z,55.60
2022-08-29T18:41:31.515Z,56.80
2022-08-29T18:44:19.752Z,57.80
2022-08-29T18:47:11.438Z,58.60
2022-08-29T18:50:18.665Z,59.40
2022-08-29T18:53:20.854Z,60.70
2022-08-29T18:56:06.792Z,62.40
2022-08-29T18:58:54.715Z,63.00
2022-08-29T19:01:44.601Z,64.00
2022-08-29T19:04:30.375Z,65.20
2022-08-29T19:07:16.023Z,66.10
2022-08-29T19:10:11.560Z,67.10
2022-08-29T19:12:58.343Z,68.20
2022-08-29T19:15:48.448Z,69.10
2022-08-29T19:18:35.891Z,69.80
2022-08-29T19:21:22.689Z,70.60
2022-08-29T19:24:11.472Z,70.80
2022-08-29T19:26:57.949Z,71.40
2022-08-29T19:29:44.279Z,72.50
2022-08-29T19:32:34.521Z,73.10
2022-08-29T19:35:21.702Z,73.20
2022-08-29T19:38:07.716Z,73.70
2022-08-29T19:40:55.811Z,75.00
2022-08-29T19:43:44.160Z,75.40
2022-08-29T19:46:29.814Z,75.50
2022-08-29T19:49:15.575Z,75.60
2022-08-29T19:52:02.429Z,76.20
2022-08-29T19:54:50.956Z,76.60
2022-08-29T19:57:37.935Z,77.60
2022-08-29T20:00:25.583Z,77.90
2022-08-29T20:03:11.164Z,78.20
2022-08-29T20:05:57.140Z,78.20
2022-08-29T20:08:47.556Z,78.50
2022-08-29T20:11:33.377Z,78.80
2022-08-29T20:14:31.809Z,78.80
2022-08-29T20:17:20.141Z,79.50
2022-08-29T20:20:19.485Z,79.70
2022-08-29T20:23:08.145Z,79.90
2022-08-29T20:25:55.905Z,80.00
2022-08-29T20:28:42.496Z,80.20
2022-08-29T20:31:28.600Z,81.70
2022-08-29T20:34:14.628Z,81.80
2022-08-29T20:37:09.660Z,81.80
2022-08-29T20:39:56.166Z,81.90
2022-08-29T20:42:42.150Z,82.20
2022-08-29T20:45:29.450Z,82.40
2022-08-29T20:48:17.351Z,83.20
2022-08-29T20:51:05.728Z,82.80
2022-08-29T20:53:51.412Z,83.20
2022-08-29T20:56:36.892Z,83.40
2022-08-29T20:59:26.548Z,83.50
2022-08-29T21:02:13.882Z,84.00
2022-08-29T21:05:18.127Z,84.10
2022-08-29T21:08:05.877Z,84.40
2022-08-29T21:10:55.126Z,84.90
2022-08-29T21:13:41.684Z,85.00
2022-08-29T21:16:28.758Z,85.40
2022-08-29T21:19:14.361Z,85.80
2022-08-29T21:22:02.164Z,85.90
2022-08-29T21:24:48.028Z,86.00
2022-08-29T21:27:33.429Z,86.10
2022-08-29T21:30:19.326Z,86.40
2022-08-29T21:33:07.156Z,86.50
2022-08-29T21:35:53.798Z,86.40
2022-08-29T21:38:39.522Z,86.70
2022-08-29T21:41:29.088Z,87.10
2022-08-29T21:44:15.359Z,87.30
2022-08-29T21:47:00.785Z,87.20
2022-08-29T21:49:48.415Z,87.60
2022-08-29T21:52:34.701Z,87.70
2022-08-29T21:55:23.023Z,87.90
2022-08-29T21:58:09.037Z,87.90
2022-08-29T22:00:54.592Z,87.70
2022-08-29T22:03:40.912Z,87.60
2022-08-29T22:06:27.698Z,88.00
2022-08-29T22:09:16.811Z,87.90
2022-08-29T22:12:05.252Z,88.20
2022-08-29T22:15:12.294Z,88.10
2022-08-29T22:17:58.874Z,88.30
2022-08-29T22:20:54.884Z,88.40
2022-08-29T22:23:41.128Z,88.20
2022-08-29T22:26:26.501Z,88.30
2022-08-29T22:29:14.039Z,88.50
2022-08-29T22:32:00.705Z,89.00
2022-08-29T22:34:46.085Z,89.00
2022-08-29T22:37:35.903Z,89.00
2022-08-29T22:40:23.885Z,89.20
2022-08-29T22:43:09.503Z,89.40
2022-08-29T22:45:55.342Z,89.40
2022-08-29T22:48:41.798Z,89.40
2022-08-29T22:51:28.807Z,89.40
2022-08-29T22:54:32.888Z,89.40
2022-08-29T22:57:19.598Z,89.40
2022-08-29T23:00:05.992Z,89.60
2022-08-29T23:02:53.210Z,89.80
2022-08-29T23:05:38.417Z,89.70
2022-08-29T23:08:23.907Z,89.70
2022-08-29T23:11:11.088Z,89.90
2022-08-29T23:13:58.557Z,89.70
2022-08-29T23:16:44.384Z,90.00
2022-08-29T23:19:35.320Z,90.00
2022-08-29T23:22:23.453Z,90.10
2022-08-29T23:25:09.643Z,90.10
2022-08-29T23:27:55.521Z,90.20
2022-08-29T23:30:41.306Z,90.20
2022-08-29T23:33:26.555Z,90.50
2022-08-29T23:36:12.402Z,90.80
2022-08-29T23:38:57.487Z,90.50
2022-08-29T23:41:49.040Z,90.50
2022-08-29T23:44:36.079Z,90.60
2022-08-29T23:47:21.277Z,90.70
2022-08-29T23:50:07.302Z,90.80
2022-08-29T23:52:53.032Z,90.80
2022-08-29T23:55:40.377Z,90.90
2022-08-29T23:58:25.712Z,90.80
